sensor_id;sensor_type;location;lat;lon;timestamp;temperature;humidity
14172;DHT22;7165;52.388;4.928;2024-03-29T00:01:39;9.90;99.90
14172;DHT22;7165;52.388;4.928;2024-03-29T00:04:05;9.90;99.90
14172;DHT22;7165;52.388;4.928;2024-03-29T00:06:30;9.80;99.90
14172;DHT22;7165;52.388;4.928;2024-03-29T00:08:56;9.90;99.90
14172;DHT22;7165;52.388;4.928;2024-03-29T00:11:22;9.80;99.90
14172;DHT22;7165;52.388;4.928;2024-03-29T00:13:49;9.80;99.90
14172;DHT22;7165;52.388;4.928;2024-03-29T00:16:15;9.80;99.90
14172;DHT22;7165;52.388;4.928;2024-03-29T00:18:40;9.80;99.90
14172;DHT22;7165;52.388;4.928;2024-03-29T00:21:06;9.80;99.90
14172;DHT22;7165;52.388;4.928;2024-03-29T00:23:32;9.70;99.90
14172;DHT22;7165;52.388;4.928;2024-03-29T00:25:58;9.70;99.90
14172;DHT22;7165;52.388;4.928;2024-03-29T00:28:23;9.70;99.90
14172;DHT22;7165;52.388;4.928;2024-03-29T00:30:50;9.70;99.90
14172;DHT22;7165;52.388;4.928;2024-03-29T00:33:16;9.70;99.90
14172;DHT22;7165;52.388;4.928;2024-03-29T00:35:42;9.60;99.90
14172;DHT22;7165;52.388;4.928;2024-03-29T00:38:08;9.60;99.90
14172;DHT22;7165;52.388;4.928;2024-03-29T00:40:35;9.60;99.90
14172;DHT22;7165;52.388;4.928;2024-03-29T00:43:01;9.60;99.90
14172;DHT22;7165;52.388;4.928;2024-03-29T00:45:26;9.60;99.90
14172;DHT22;7165;52.388;4.928;2024-03-29T00:47:54;9.60;99.90
14172;DHT22;7165;52.388;4.928;2024-03-29T00:50:19;9.60;99.90
14172;DHT22;7165;52.388;4.928;2024-03-29T00:52:45;9.60;99.90
14172;DHT22;7165;52.388;4.928;2024-03-29T00:55:11;9.60;99.90
14172;DHT22;7165;52.388;4.928;2024-03-29T00:57:37;9.60;99.90
14172;DHT22;7165;52.388;4.928;2024-03-29T01:00:03;9.70;99.90
14172;DHT22;7165;52.388;4.928;2024-03-29T01:02:29;9.60;99.90
14172;DHT22;7165;52.388;4.928;2024-03-29T01:04:56;9.70;99.90
14172;DHT22;7165;52.388;4.928;2024-03-29T01:07:22;9.70;99.90
14172;DHT22;7165;52.388;4.928;2024-03-29T01:09:48;9.60;99.90
14172;DHT22;7165;52.388;4.928;2024-03-29T01:12:13;9.60;99.90
14172;DHT22;7165;52.388;4.928;2024-03-29T01:14:39;9.60;99.90
14172;DHT22;7165;52.388;4.928;2024-03-29T01:17:05;9.60;99.90
14172;DHT22;7165;52.388;4.928;2024-03-29T01:19:31;9.60;99.90
14172;DHT22;7165;52.388;4.928;2024-03-29T01:21:58;9.60;99.90
14172;DHT22;7165;52.388;4.928;2024-03-29T01:24:23;9.60;99.90
14172;DHT22;7165;52.388;4.928;2024-03-29T01:26:49;9.60;99.90
14172;DHT22;7165;52.388;4.928;2024-03-29T01:29:15;9.60;99.90
14172;DHT22;7165;52.388;4.928;2024-03-29T01:31:41;9.60;99.90
14172;DHT22;7165;52.388;4.928;2024-03-29T01:34:06;9.60;99.90
14172;DHT22;7165;52.388;4.928;2024-03-29T01:36:32;9.60;99.90
14172;DHT22;7165;52.388;4.928;2024-03-29T01:38:59;9.60;99.90
14172;DHT22;7165;52.388;4.928;2024-03-29T01:41:25;9.50;99.90
14172;DHT22;7165;52.388;4.928;2024-03-29T01:43:51;9.60;99.90
14172;DHT22;7165;52.388;4.928;2024-03-29T01:46:17;9.60;99.90
14172;DHT22;7165;52.388;4.928;2024-03-29T01:48:45;9.60;99.90
14172;DHT22;7165;52.388;4.928;2024-03-29T01:51:12;9.60;99.90
14172;DHT22;7165;52.388;4.928;2024-03-29T01:53:40;9.60;99.90
14172;DHT22;7165;52.388;4.928;2024-03-29T01:56:08;9.60;99.90
14172;DHT22;7165;52.388;4.928;2024-03-29T01:58:35;9.70;99.90
14172;DHT22;7165;52.388;4.928;2024-03-29T02:01:01;9.60;99.90
14172;DHT22;7165;52.388;4.928;2024-03-29T02:03:29;9.60;99.90
14172;DHT22;7165;52.388;4.928;2024-03-29T02:05:57;9.60;99.90
14172;DHT22;7165;52.388;4.928;2024-03-29T02:08:25;9.60;99.90
14172;DHT22;7165;52.388;4.928;2024-03-29T02:10:51;9.70;99.90
14172;DHT22;7165;52.388;4.928;2024-03-29T02:13:19;9.60;99.90
14172;DHT22;7165;52.388;4.928;2024-03-29T02:15:46;9.60;99.90
14172;DHT22;7165;52.388;4.928;2024-03-29T02:18:12;9.60;99.90
14172;DHT22;7165;52.388;4.928;2024-03-29T02:20:39;9.60;99.90
14172;DHT22;7165;52.388;4.928;2024-03-29T02:23:06;9.60;99.90
14172;DHT22;7165;52.388;4.928;2024-03-29T02:25:35;9.60;99.90
14172;DHT22;7165;52.388;4.928;2024-03-29T02:28:02;9.50;99.90
14172;DHT22;7165;52.388;4.928;2024-03-29T02:30:29;9.50;99.90
14172;DHT22;7165;52.388;4.928;2024-03-29T02:32:56;9.50;99.90
14172;DHT22;7165;52.388;4.928;2024-03-29T02:35:23;9.50;99.90
14172;DHT22;7165;52.388;4.928;2024-03-29T02:37:50;9.50;99.90
14172;DHT22;7165;52.388;4.928;2024-03-29T02:40:17;9.40;99.90
14172;DHT22;7165;52.388;4.928;2024-03-29T02:42:45;9.40;99.90
14172;DHT22;7165;52.388;4.928;2024-03-29T02:45:12;9.50;99.90
14172;DHT22;7165;52.388;4.928;2024-03-29T02:47:38;9.50;99.90
14172;DHT22;7165;52.388;4.928;2024-03-29T02:50:05;9.50;99.90
14172;DHT22;7165;52.388;4.928;2024-03-29T02:52:31;9.50;99.90
14172;DHT22;7165;52.388;4.928;2024-03-29T02:54:58;9.50;99.90
14172;DHT22;7165;52.388;4.928;2024-03-29T02:57:23;9.50;99.90
14172;DHT22;7165;52.388;4.928;2024-03-29T02:59:52;9.50;99.90
14172;DHT22;7165;52.388;4.928;2024-03-29T03:02:17;9.50;99.90
14172;DHT22;7165;52.388;4.928;2024-03-29T03:04:44;9.40;99.90
14172;DHT22;7165;52.388;4.928;2024-03-29T03:07:10;9.40;99.90
14172;DHT22;7165;52.388;4.928;2024-03-29T03:09:54;9.40;99.90
14172;DHT22;7165;52.388;4.928;2024-03-29T03:12:38;9.40;99.90
14172;DHT22;7165;52.388;4.928;2024-03-29T03:15:06;9.30;99.90
14172;DHT22;7165;52.388;4.928;2024-03-29T03:17:32;9.30;99.90
14172;DHT22;7165;52.388;4.928;2024-03-29T03:19:59;9.30;99.90
14172;DHT22;7165;52.388;4.928;2024-03-29T03:22:25;9.30;99.90
14172;DHT22;7165;52.388;4.928;2024-03-29T03:24:51;9.30;99.90
14172;DHT22;7165;52.388;4.928;2024-03-29T03:27:17;9.30;99.90
14172;DHT22;7165;52.388;4.928;2024-03-29T03:29:44;9.30;99.90
14172;DHT22;7165;52.388;4.928;2024-03-29T03:32:12;9.30;99.90
14172;DHT22;7165;52.388;4.928;2024-03-29T03:34:37;9.30;99.90
14172;DHT22;7165;52.388;4.928;2024-03-29T03:37:04;9.40;99.90
14172;DHT22;7165;52.388;4.928;2024-03-29T03:39:30;9.30;99.90
14172;DHT22;7165;52.388;4.928;2024-03-29T03:41:56;9.30;99.90
14172;DHT22;7165;52.388;4.928;2024-03-29T03:44:22;9.30;99.90
14172;DHT22;7165;52.388;4.928;2024-03-29T03:46:50;9.40;99.90
14172;DHT22;7165;52.388;4.928;2024-03-29T03:49:17;9.30;99.90
14172;DHT22;7165;52.388;4.928;2024-03-29T03:51:43;9.40;99.90
14172;DHT22;7165;52.388;4.928;2024-03-29T03:54:09;9.40;99.90
14172;DHT22;7165;52.388;4.928;2024-03-29T03:56:36;9.40;99.90
14172;DHT22;7165;52.388;4.928;2024-03-29T03:59:02;9.40;99.90
14172;DHT22;7165;52.388;4.928;2024-03-29T04:01:28;9.50;99.90
14172;DHT22;7165;52.388;4.928;2024-03-29T04:03:54;9.50;99.90
14172;DHT22;7165;52.388;4.928;2024-03-29T04:06:22;9.50;99.90
14172;DHT22;7165;52.388;4.928;2024-03-29T04:08:48;9.50;99.90
14172;DHT22;7165;52.388;4.928;2024-03-29T04:11:14;9.50;99.90
14172;DHT22;7165;52.388;4.928;2024-03-29T04:13:42;9.50;99.90
14172;DHT22;7165;52.388;4.928;2024-03-29T04:16:08;9.50;99.90
14172;DHT22;7165;52.388;4.928;2024-03-29T04:18:34;9.40;99.90
14172;DHT22;7165;52.388;4.928;2024-03-29T04:21:01;9.40;99.90
14172;DHT22;7165;52.388;4.928;2024-03-29T04:23:29;9.40;99.90
14172;DHT22;7165;52.388;4.928;2024-03-29T04:25:56;9.40;99.90
14172;DHT22;7165;52.388;4.928;2024-03-29T04:28:21;9.40;99.90
14172;DHT22;7165;52.388;4.928;2024-03-29T04:30:51;9.40;99.90
14172;DHT22;7165;52.388;4.928;2024-03-29T04:33:17;9.40;99.90
14172;DHT22;7165;52.388;4.928;2024-03-29T04:35:54;9.30;99.90
14172;DHT22;7165;52.388;4.928;2024-03-29T04:38:20;9.30;99.90
14172;DHT22;7165;52.388;4.928;2024-03-29T04:40:48;9.30;99.90
14172;DHT22;7165;52.388;4.928;2024-03-29T04:43:15;9.30;99.90
14172;DHT22;7165;52.388;4.928;2024-03-29T04:45:42;9.30;99.90
14172;DHT22;7165;52.388;4.928;2024-03-29T04:48:09;9.30;99.90
14172;DHT22;7165;52.388;4.928;2024-03-29T04:50:36;9.30;99.90
14172;DHT22;7165;52.388;4.928;2024-03-29T04:53:02;9.30;99.90
14172;DHT22;7165;52.388;4.928;2024-03-29T04:55:29;9.30;99.90
14172;DHT22;7165;52.388;4.928;2024-03-29T04:57:57;9.30;99.90
14172;DHT22;7165;52.388;4.928;2024-03-29T05:00:24;9.30;99.90
14172;DHT22;7165;52.388;4.928;2024-03-29T05:02:50;9.30;99.90
14172;DHT22;7165;52.388;4.928;2024-03-29T05:05:17;9.30;99.90
14172;DHT22;7165;52.388;4.928;2024-03-29T05:07:44;9.30;99.90
14172;DHT22;7165;52.388;4.928;2024-03-29T05:10:10;9.40;99.90
14172;DHT22;7165;52.388;4.928;2024-03-29T05:12:37;9.30;99.90
14172;DHT22;7165;52.388;4.928;2024-03-29T05:15:06;9.30;99.90
14172;DHT22;7165;52.388;4.928;2024-03-29T05:17:33;9.30;99.90
14172;DHT22;7165;52.388;4.928;2024-03-29T05:19:59;9.30;99.90
14172;DHT22;7165;52.388;4.928;2024-03-29T05:22:26;9.30;99.90
14172;DHT22;7165;52.388;4.928;2024-03-29T05:24:53;9.40;99.90
14172;DHT22;7165;52.388;4.928;2024-03-29T05:27:20;9.30;99.90
14172;DHT22;7165;52.388;4.928;2024-03-29T05:29:47;9.40;99.90
14172;DHT22;7165;52.388;4.928;2024-03-29T05:32:15;9.40;99.90
14172;DHT22;7165;52.388;4.928;2024-03-29T05:34:41;9.40;99.90
14172;DHT22;7165;52.388;4.928;2024-03-29T05:37:08;9.40;99.90
14172;DHT22;7165;52.388;4.928;2024-03-29T05:39:35;9.40;99.90
14172;DHT22;7165;52.388;4.928;2024-03-29T05:42:01;9.40;99.90
14172;DHT22;7165;52.388;4.928;2024-03-29T05:44:28;9.40;99.90
14172;DHT22;7165;52.388;4.928;2024-03-29T05:46:54;9.40;99.90
14172;DHT22;7165;52.388;4.928;2024-03-29T05:49:22;9.40;99.90
14172;DHT22;7165;52.388;4.928;2024-03-29T05:51:49;9.40;99.90
14172;DHT22;7165;52.388;4.928;2024-03-29T05:54:17;9.40;99.90
14172;DHT22;7165;52.388;4.928;2024-03-29T05:56:44;9.40;99.90
14172;DHT22;7165;52.388;4.928;2024-03-29T05:59:10;9.30;99.90
14172;DHT22;7165;52.388;4.928;2024-03-29T06:01:37;9.40;99.90
14172;DHT22;7165;52.388;4.928;2024-03-29T06:04:04;9.30;99.90
14172;DHT22;7165;52.388;4.928;2024-03-29T06:06:40;9.30;99.90
14172;DHT22;7165;52.388;4.928;2024-03-29T06:09:06;9.30;99.90
14172;DHT22;7165;52.388;4.928;2024-03-29T06:11:33;9.30;99.90
14172;DHT22;7165;52.388;4.928;2024-03-29T06:14:00;9.20;99.90
14172;DHT22;7165;52.388;4.928;2024-03-29T06:16:43;9.20;99.90
14172;DHT22;7165;52.388;4.928;2024-03-29T06:19:28;9.20;99.90
14172;DHT22;7165;52.388;4.928;2024-03-29T06:21:55;9.10;99.90
14172;DHT22;7165;52.388;4.928;2024-03-29T06:24:22;9.10;99.90
14172;DHT22;7165;52.388;4.928;2024-03-29T06:26:49;9.10;99.90
14172;DHT22;7165;52.388;4.928;2024-03-29T06:29:18;9.00;99.90
14172;DHT22;7165;52.388;4.928;2024-03-29T06:31:44;9.00;99.90
14172;DHT22;7165;52.388;4.928;2024-03-29T06:34:11;9.00;99.90
14172;DHT22;7165;52.388;4.928;2024-03-29T06:36:38;9.00;99.90
14172;DHT22;7165;52.388;4.928;2024-03-29T06:39:06;9.00;99.90
14172;DHT22;7165;52.388;4.928;2024-03-29T06:41:33;9.00;99.90
14172;DHT22;7165;52.388;4.928;2024-03-29T06:44:00;8.90;99.90
14172;DHT22;7165;52.388;4.928;2024-03-29T06:46:27;9.00;99.90
14172;DHT22;7165;52.388;4.928;2024-03-29T06:48:53;9.00;99.90
14172;DHT22;7165;52.388;4.928;2024-03-29T06:51:20;9.00;99.90
14172;DHT22;7165;52.388;4.928;2024-03-29T06:53:48;9.00;99.90
14172;DHT22;7165;52.388;4.928;2024-03-29T06:56:16;9.10;99.90
14172;DHT22;7165;52.388;4.928;2024-03-29T06:58:42;9.10;99.90
14172;DHT22;7165;52.388;4.928;2024-03-29T07:01:09;9.10;99.90
14172;DHT22;7165;52.388;4.928;2024-03-29T07:03:35;9.20;99.90
14172;DHT22;7165;52.388;4.928;2024-03-29T07:06:02;9.30;99.90
14172;DHT22;7165;52.388;4.928;2024-03-29T07:08:29;9.40;99.90
14172;DHT22;7165;52.388;4.928;2024-03-29T07:10:59;9.50;99.90
14172;DHT22;7165;52.388;4.928;2024-03-29T07:13:28;9.60;99.90
14172;DHT22;7165;52.388;4.928;2024-03-29T07:15:55;9.60;99.90
14172;DHT22;7165;52.388;4.928;2024-03-29T07:18:22;9.60;99.90
14172;DHT22;7165;52.388;4.928;2024-03-29T07:20:49;9.70;99.90
14172;DHT22;7165;52.388;4.928;2024-03-29T07:23:15;9.70;99.90
14172;DHT22;7165;52.388;4.928;2024-03-29T07:25:43;9.80;99.90
14172;DHT22;7165;52.388;4.928;2024-03-29T07:28:10;9.80;99.90
14172;DHT22;7165;52.388;4.928;2024-03-29T07:30:41;9.90;99.90
14172;DHT22;7165;52.388;4.928;2024-03-29T07:33:09;10.00;99.90
14172;DHT22;7165;52.388;4.928;2024-03-29T07:35:36;10.10;99.90
14172;DHT22;7165;52.388;4.928;2024-03-29T07:38:03;10.20;99.90
14172;DHT22;7165;52.388;4.928;2024-03-29T07:40:30;10.20;99.90
14172;DHT22;7165;52.388;4.928;2024-03-29T07:42:56;10.30;99.90
14172;DHT22;7165;52.388;4.928;2024-03-29T07:45:25;10.30;99.90
14172;DHT22;7165;52.388;4.928;2024-03-29T07:47:53;10.40;99.90
14172;DHT22;7165;52.388;4.928;2024-03-29T07:50:19;10.50;99.90
14172;DHT22;7165;52.388;4.928;2024-03-29T07:52:46;10.50;99.90
14172;DHT22;7165;52.388;4.928;2024-03-29T07:55:12;10.60;99.90
14172;DHT22;7165;52.388;4.928;2024-03-29T07:57:39;10.70;99.90
14172;DHT22;7165;52.388;4.928;2024-03-29T08:00:06;10.70;99.90
14172;DHT22;7165;52.388;4.928;2024-03-29T08:02:32;10.70;99.90
14172;DHT22;7165;52.388;4.928;2024-03-29T08:05:00;10.60;99.90
14172;DHT22;7165;52.388;4.928;2024-03-29T08:07:27;10.60;99.90
14172;DHT22;7165;52.388;4.928;2024-03-29T08:09:54;10.60;99.90
14172;DHT22;7165;52.388;4.928;2024-03-29T08:12:21;10.70;99.90
14172;DHT22;7165;52.388;4.928;2024-03-29T08:14:47;10.80;99.90
14172;DHT22;7165;52.388;4.928;2024-03-29T08:17:14;11.00;99.90
14172;DHT22;7165;52.388;4.928;2024-03-29T08:19:41;11.10;99.90
14172;DHT22;7165;52.388;4.928;2024-03-29T08:22:09;11.30;99.90
14172;DHT22;7165;52.388;4.928;2024-03-29T08:24:36;11.40;99.90
14172;DHT22;7165;52.388;4.928;2024-03-29T08:27:03;11.50;99.90
14172;DHT22;7165;52.388;4.928;2024-03-29T08:29:30;11.60;99.90
14172;DHT22;7165;52.388;4.928;2024-03-29T08:31:56;11.70;99.90
14172;DHT22;7165;52.388;4.928;2024-03-29T08:34:23;11.70;99.90
14172;DHT22;7165;52.388;4.928;2024-03-29T08:36:50;11.70;99.90
14172;DHT22;7165;52.388;4.928;2024-03-29T08:39:18;11.70;99.90
14172;DHT22;7165;52.388;4.928;2024-03-29T08:41:44;11.60;99.90
14172;DHT22;7165;52.388;4.928;2024-03-29T08:44:11;11.50;99.90
14172;DHT22;7165;52.388;4.928;2024-03-29T08:46:38;11.40;99.90
14172;DHT22;7165;52.388;4.928;2024-03-29T08:49:04;11.40;99.90
14172;DHT22;7165;52.388;4.928;2024-03-29T08:51:31;11.40;99.90
14172;DHT22;7165;52.388;4.928;2024-03-29T08:53:58;11.50;99.90
14172;DHT22;7165;52.388;4.928;2024-03-29T08:56:26;11.40;99.90
14172;DHT22;7165;52.388;4.928;2024-03-29T08:58:52;11.50;99.90
14172;DHT22;7165;52.388;4.928;2024-03-29T09:01:19;11.50;99.90
14172;DHT22;7165;52.388;4.928;2024-03-29T09:03:46;11.60;99.90
14172;DHT22;7165;52.388;4.928;2024-03-29T09:06:12;11.60;99.90
14172;DHT22;7165;52.388;4.928;2024-03-29T09:08:41;11.60;99.90
14172;DHT22;7165;52.388;4.928;2024-03-29T09:11:08;11.80;99.90
14172;DHT22;7165;52.388;4.928;2024-03-29T09:13:37;11.90;99.90
14172;DHT22;7165;52.388;4.928;2024-03-29T09:16:04;12.00;99.90
14172;DHT22;7165;52.388;4.928;2024-03-29T09:18:31;12.10;99.90
14172;DHT22;7165;52.388;4.928;2024-03-29T09:20:57;12.20;99.90
14172;DHT22;7165;52.388;4.928;2024-03-29T09:23:24;12.30;99.90
14172;DHT22;7165;52.388;4.928;2024-03-29T09:25:53;12.50;99.90
14172;DHT22;7165;52.388;4.928;2024-03-29T09:28:21;12.60;99.90
14172;DHT22;7165;52.388;4.928;2024-03-29T09:30:49;12.80;99.90
14172;DHT22;7165;52.388;4.928;2024-03-29T09:33:16;12.70;99.90
14172;DHT22;7165;52.388;4.928;2024-03-29T09:35:43;12.60;99.90
14172;DHT22;7165;52.388;4.928;2024-03-29T09:38:10;12.60;99.90
14172;DHT22;7165;52.388;4.928;2024-03-29T09:40:36;12.50;99.90
14172;DHT22;7165;52.388;4.928;2024-03-29T09:43:03;12.50;99.90
14172;DHT22;7165;52.388;4.928;2024-03-29T09:45:31;12.50;99.90
14172;DHT22;7165;52.388;4.928;2024-03-29T09:48:01;12.60;99.90
14172;DHT22;7165;52.388;4.928;2024-03-29T09:50:29;12.80;99.90
14172;DHT22;7165;52.388;4.928;2024-03-29T09:52:55;13.10;99.90
14172;DHT22;7165;52.388;4.928;2024-03-29T09:55:22;13.30;99.90
14172;DHT22;7165;52.388;4.928;2024-03-29T09:57:49;13.40;99.90
14172;DHT22;7165;52.388;4.928;2024-03-29T10:00:16;13.30;99.90
14172;DHT22;7165;52.388;4.928;2024-03-29T10:02:43;13.40;99.90
14172;DHT22;7165;52.388;4.928;2024-03-29T10:05:12;13.50;99.90
14172;DHT22;7165;52.388;4.928;2024-03-29T10:07:39;13.50;99.90
14172;DHT22;7165;52.388;4.928;2024-03-29T10:10:08;13.40;99.90
14172;DHT22;7165;52.388;4.928;2024-03-29T10:12:34;13.40;99.90
14172;DHT22;7165;52.388;4.928;2024-03-29T10:15:02;13.60;99.90
14172;DHT22;7165;52.388;4.928;2024-03-29T10:17:34;13.60;99.90
14172;DHT22;7165;52.388;4.928;2024-03-29T10:20:03;13.60;99.90
14172;DHT22;7165;52.388;4.928;2024-03-29T10:22:35;13.60;99.90
14172;DHT22;7165;52.388;4.928;2024-03-29T10:25:02;13.60;99.90
14172;DHT22;7165;52.388;4.928;2024-03-29T10:27:29;13.70;99.90
14172;DHT22;7165;52.388;4.928;2024-03-29T10:29:56;13.70;99.90
14172;DHT22;7165;52.388;4.928;2024-03-29T10:32:23;13.60;99.90
14172;DHT22;7165;52.388;4.928;2024-03-29T10:34:49;13.50;99.90
14172;DHT22;7165;52.388;4.928;2024-03-29T10:37:16;13.70;99.90
14172;DHT22;7165;52.388;4.928;2024-03-29T10:39:52;13.90;99.90
14172;DHT22;7165;52.388;4.928;2024-03-29T10:42:18;14.00;99.90
14172;DHT22;7165;52.388;4.928;2024-03-29T10:44:46;14.20;99.90
14172;DHT22;7165;52.388;4.928;2024-03-29T10:47:15;14.30;99.90
14172;DHT22;7165;52.388;4.928;2024-03-29T10:49:44;14.50;99.90
14172;DHT22;7165;52.388;4.928;2024-03-29T10:52:11;14.60;99.90
14172;DHT22;7165;52.388;4.928;2024-03-29T10:54:42;14.90;99.90
14172;DHT22;7165;52.388;4.928;2024-03-29T10:57:12;15.10;99.90
14172;DHT22;7165;52.388;4.928;2024-03-29T10:59:44;14.80;99.90
14172;DHT22;7165;52.388;4.928;2024-03-29T11:02:17;14.50;99.90
14172;DHT22;7165;52.388;4.928;2024-03-29T11:04:46;14.00;99.90
14172;DHT22;7165;52.388;4.928;2024-03-29T11:07:15;13.60;99.90
14172;DHT22;7165;52.388;4.928;2024-03-29T11:09:46;13.30;99.90
14172;DHT22;7165;52.388;4.928;2024-03-29T11:12:16;13.10;99.90
14172;DHT22;7165;52.388;4.928;2024-03-29T11:14:45;13.00;99.90
14172;DHT22;7165;52.388;4.928;2024-03-29T11:17:13;13.00;99.90
14172;DHT22;7165;52.388;4.928;2024-03-29T11:19:39;13.10;99.90
14172;DHT22;7165;52.388;4.928;2024-03-29T11:22:06;13.20;99.90
14172;DHT22;7165;52.388;4.928;2024-03-29T11:24:33;13.20;99.90
14172;DHT22;7165;52.388;4.928;2024-03-29T11:27:06;13.50;99.90
14172;DHT22;7165;52.388;4.928;2024-03-29T11:29:34;13.80;99.90
14172;DHT22;7165;52.388;4.928;2024-03-29T11:32:05;14.00;99.90
14172;DHT22;7165;52.388;4.928;2024-03-29T11:34:32;14.00;99.90
14172;DHT22;7165;52.388;4.928;2024-03-29T11:37:06;14.20;99.90
14172;DHT22;7165;52.388;4.928;2024-03-29T11:39:33;14.30;99.90
14172;DHT22;7165;52.388;4.928;2024-03-29T11:42:00;14.40;99.90
14172;DHT22;7165;52.388;4.928;2024-03-29T11:44:28;14.60;99.90
14172;DHT22;7165;52.388;4.928;2024-03-29T11:46:57;14.80;99.90
14172;DHT22;7165;52.388;4.928;2024-03-29T11:49:24;14.90;99.90
14172;DHT22;7165;52.388;4.928;2024-03-29T11:51:51;15.00;99.90
14172;DHT22;7165;52.388;4.928;2024-03-29T11:54:28;15.10;99.90
14172;DHT22;7165;52.388;4.928;2024-03-29T11:56:55;15.10;99.90
14172;DHT22;7165;52.388;4.928;2024-03-29T11:59:22;15.10;99.90
14172;DHT22;7165;52.388;4.928;2024-03-29T12:01:48;15.10;99.90
14172;DHT22;7165;52.388;4.928;2024-03-29T12:04:20;15.00;99.90
14172;DHT22;7165;52.388;4.928;2024-03-29T12:06:48;15.20;99.90
14172;DHT22;7165;52.388;4.928;2024-03-29T12:09:15;15.40;99.90
14172;DHT22;7165;52.388;4.928;2024-03-29T12:11:43;15.70;99.90
14172;DHT22;7165;52.388;4.928;2024-03-29T12:14:11;15.90;99.90
14172;DHT22;7165;52.388;4.928;2024-03-29T12:16:42;16.20;99.90
14172;DHT22;7165;52.388;4.928;2024-03-29T12:19:08;16.30;99.90
14172;DHT22;7165;52.388;4.928;2024-03-29T12:21:36;16.50;99.90
14172;DHT22;7165;52.388;4.928;2024-03-29T12:24:03;16.40;99.90
14172;DHT22;7165;52.388;4.928;2024-03-29T12:26:30;16.40;99.90
14172;DHT22;7165;52.388;4.928;2024-03-29T12:28:57;16.30;99.90
14172;DHT22;7165;52.388;4.928;2024-03-29T12:31:23;16.10;99.90
14172;DHT22;7165;52.388;4.928;2024-03-29T12:33:51;16.20;99.90
14172;DHT22;7165;52.388;4.928;2024-03-29T12:36:17;16.10;99.90
14172;DHT22;7165;52.388;4.928;2024-03-29T12:38:47;16.10;99.90
14172;DHT22;7165;52.388;4.928;2024-03-29T12:41:17;16.40;99.90
14172;DHT22;7165;52.388;4.928;2024-03-29T12:43:44;16.50;99.90
14172;DHT22;7165;52.388;4.928;2024-03-29T12:46:11;16.30;99.90
14172;DHT22;7165;52.388;4.928;2024-03-29T12:48:38;16.10;99.90
14172;DHT22;7165;52.388;4.928;2024-03-29T12:51:05;16.00;99.90
14172;DHT22;7165;52.388;4.928;2024-03-29T12:53:33;15.90;99.90
14172;DHT22;7165;52.388;4.928;2024-03-29T12:56:01;15.80;99.90
14172;DHT22;7165;52.388;4.928;2024-03-29T12:58:27;15.70;99.90
14172;DHT22;7165;52.388;4.928;2024-03-29T13:00:54;15.70;99.90
14172;DHT22;7165;52.388;4.928;2024-03-29T13:03:21;15.60;99.90
14172;DHT22;7165;52.388;4.928;2024-03-29T13:05:47;15.40;99.90
14172;DHT22;7165;52.388;4.928;2024-03-29T13:08:14;15.30;99.90
14172;DHT22;7165;52.388;4.928;2024-03-29T13:10:41;15.30;99.90
14172;DHT22;7165;52.388;4.928;2024-03-29T13:13:10;15.30;99.90
14172;DHT22;7165;52.388;4.928;2024-03-29T13:15:37;15.40;99.90
14172;DHT22;7165;52.388;4.928;2024-03-29T13:18:05;15.60;99.90
14172;DHT22;7165;52.388;4.928;2024-03-29T13:20:32;15.90;99.90
14172;DHT22;7165;52.388;4.928;2024-03-29T13:23:01;16.10;99.90
14172;DHT22;7165;52.388;4.928;2024-03-29T13:25:28;16.20;99.90
14172;DHT22;7165;52.388;4.928;2024-03-29T13:27:55;16.40;99.90
14172;DHT22;7165;52.388;4.928;2024-03-29T13:30:23;16.40;99.90
14172;DHT22;7165;52.388;4.928;2024-03-29T13:32:50;16.40;99.90
14172;DHT22;7165;52.388;4.928;2024-03-29T13:35:17;16.20;99.90
14172;DHT22;7165;52.388;4.928;2024-03-29T13:37:47;16.10;99.90
14172;DHT22;7165;52.388;4.928;2024-03-29T13:40:14;15.90;99.90
14172;DHT22;7165;52.388;4.928;2024-03-29T13:42:41;15.90;99.90
14172;DHT22;7165;52.388;4.928;2024-03-29T13:45:09;15.90;99.90
14172;DHT22;7165;52.388;4.928;2024-03-29T13:47:37;15.90;99.90
14172;DHT22;7165;52.388;4.928;2024-03-29T13:50:05;16.00;99.90
14172;DHT22;7165;52.388;4.928;2024-03-29T13:52:32;16.00;99.90
14172;DHT22;7165;52.388;4.928;2024-03-29T13:54:59;15.90;99.90
14172;DHT22;7165;52.388;4.928;2024-03-29T13:57:25;15.80;99.90
14172;DHT22;7165;52.388;4.928;2024-03-29T13:59:52;15.70;99.90
14172;DHT22;7165;52.388;4.928;2024-03-29T14:02:19;15.60;99.90
14172;DHT22;7165;52.388;4.928;2024-03-29T14:04:47;15.60;99.90
14172;DHT22;7165;52.388;4.928;2024-03-29T14:07:15;15.60;99.90
14172;DHT22;7165;52.388;4.928;2024-03-29T14:09:43;15.60;99.90
14172;DHT22;7165;52.388;4.928;2024-03-29T14:12:10;15.50;99.90
14172;DHT22;7165;52.388;4.928;2024-03-29T14:14:36;15.40;99.90
14172;DHT22;7165;52.388;4.928;2024-03-29T14:17:03;15.30;99.90
14172;DHT22;7165;52.388;4.928;2024-03-29T14:19:33;15.30;99.90
14172;DHT22;7165;52.388;4.928;2024-03-29T14:22:01;15.30;99.90
14172;DHT22;7165;52.388;4.928;2024-03-29T14:24:28;15.20;99.90
14172;DHT22;7165;52.388;4.928;2024-03-29T14:26:55;15.30;99.90
14172;DHT22;7165;52.388;4.928;2024-03-29T14:29:22;15.30;99.90
14172;DHT22;7165;52.388;4.928;2024-03-29T14:31:49;15.30;99.90
14172;DHT22;7165;52.388;4.928;2024-03-29T14:34:15;15.30;99.90
14172;DHT22;7165;52.388;4.928;2024-03-29T14:36:42;15.40;99.90
14172;DHT22;7165;52.388;4.928;2024-03-29T14:39:11;15.70;99.90
14172;DHT22;7165;52.388;4.928;2024-03-29T14:41:38;15.80;99.90
14172;DHT22;7165;52.388;4.928;2024-03-29T14:44:05;15.70;99.90
14172;DHT22;7165;52.388;4.928;2024-03-29T14:46:32;15.70;99.90
14172;DHT22;7165;52.388;4.928;2024-03-29T14:48:59;15.70;99.90
14172;DHT22;7165;52.388;4.928;2024-03-29T14:51:26;15.70;99.90
14172;DHT22;7165;52.388;4.928;2024-03-29T14:53:53;15.90;99.90
14172;DHT22;7165;52.388;4.928;2024-03-29T14:56:23;16.20;99.90
14172;DHT22;7165;52.388;4.928;2024-03-29T14:58:50;16.60;99.90
14172;DHT22;7165;52.388;4.928;2024-03-29T15:01:17;16.80;99.90
14172;DHT22;7165;52.388;4.928;2024-03-29T15:03:43;16.80;99.90
14172;DHT22;7165;52.388;4.928;2024-03-29T15:06:10;16.80;99.90
14172;DHT22;7165;52.388;4.928;2024-03-29T15:08:36;16.70;99.90
14172;DHT22;7165;52.388;4.928;2024-03-29T15:11:03;16.70;99.90
14172;DHT22;7165;52.388;4.928;2024-03-29T15:13:31;16.60;99.90
14172;DHT22;7165;52.388;4.928;2024-03-29T15:15:59;16.60;99.90
14172;DHT22;7165;52.388;4.928;2024-03-29T15:18:26;16.60;99.90
14172;DHT22;7165;52.388;4.928;2024-03-29T15:20:53;16.50;99.90
14172;DHT22;7165;52.388;4.928;2024-03-29T15:23:20;16.30;99.90
14172;DHT22;7165;52.388;4.928;2024-03-29T15:25:50;16.20;99.90
14172;DHT22;7165;52.388;4.928;2024-03-29T15:28:17;16.00;99.90
14172;DHT22;7165;52.388;4.928;2024-03-29T15:31:08;15.90;99.90
14172;DHT22;7165;52.388;4.928;2024-03-29T15:33:34;16.10;99.90
14172;DHT22;7165;52.388;4.928;2024-03-29T15:36:01;16.20;99.90
14172;DHT22;7165;52.388;4.928;2024-03-29T15:38:28;16.10;99.90
14172;DHT22;7165;52.388;4.928;2024-03-29T15:40:56;15.90;99.90
14172;DHT22;7165;52.388;4.928;2024-03-29T15:43:23;15.80;99.90
14172;DHT22;7165;52.388;4.928;2024-03-29T15:45:50;15.80;99.90
14172;DHT22;7165;52.388;4.928;2024-03-29T15:48:18;16.00;99.90
14172;DHT22;7165;52.388;4.928;2024-03-29T15:50:45;16.50;99.90
14172;DHT22;7165;52.388;4.928;2024-03-29T15:53:12;16.70;99.90